createdAt,value
2017-06-12T00:02:03.281Z,100150
2017-06-12T00:04:31.469Z,100147
2017-06-12T00:06:59.690Z,100150
2017-06-12T00:09:27.862Z,100156
2017-06-12T00:11:56.043Z,100155
2017-06-12T00:14:24.237Z,100153
2017-06-12T00:16:52.409Z,100151
2017-06-12T00:19:20.573Z,100151
2017-06-12T00:21:48.760Z,100149
2017-06-12T00:24:16.970Z,100151
2017-06-12T00:26:45.274Z,100151
2017-06-12T00:29:14.264Z,100153
2017-06-12T00:31:42.442Z,100156
2017-06-12T00:34:10.664Z,100148
2017-06-12T00:36:38.936Z,100146
2017-06-12T00:39:07.258Z,100145
2017-06-12T00:41:35.441Z,100148
2017-06-12T00:44:04.361Z,100145
2017-06-12T00:46:32.519Z,100148
2017-06-12T00:49:01.026Z,100146
2017-06-12T00:51:29.187Z,100158
2017-06-12T00:53:57.827Z,100159
2017-06-12T00:56:26.073Z,100153
2017-06-12T00:58:54.258Z,100153
2017-06-12T01:01:22.594Z,100147
2017-06-12T01:03:50.806Z,100141
2017-06-12T01:06:18.970Z,100142
2017-06-12T01:08:47.265Z,100140
2017-06-12T01:14:16.411Z,100145
2017-06-12T01:16:44.587Z,100150
2017-06-12T01:19:12.846Z,100146
2017-06-12T01:22:01.690Z,100151
2017-06-12T01:24:29.858Z,100159
2017-06-12T01:26:58.033Z,100162
2017-06-12T01:29:26.638Z,100160
2017-06-12T01:44:45.043Z,100159
2017-06-12T01:47:13.270Z,100153
2017-06-12T01:49:41.641Z,100152
2017-06-12T01:52:09.845Z,100162
2017-06-12T01:54:38.012Z,100155
2017-06-12T01:57:06.188Z,100156
2017-06-12T01:59:34.411Z,100156
2017-06-12T02:02:02.592Z,100155
2017-06-12T02:04:30.783Z,100157
2017-06-12T02:06:59.003Z,100165
2017-06-12T02:09:27.207Z,100162
2017-06-12T02:11:55.375Z,100164
2017-06-12T02:14:23.686Z,100168
2017-06-12T02:16:51.906Z,100164
2017-06-12T02:19:20.096Z,100158
2017-06-12T02:21:48.324Z,100159
2017-06-12T02:24:16.526Z,100166
2017-06-12T02:26:44.700Z,100169
2017-06-12T02:29:12.932Z,100172
2017-06-12T02:31:41.118Z,100167
2017-06-12T02:34:09.343Z,100172
2017-06-12T02:36:37.550Z,100161
2017-06-12T02:39:05.727Z,100171
2017-06-12T02:41:33.929Z,100175
2017-06-12T02:44:02.470Z,100176
2017-06-12T02:46:30.667Z,100189
2017-06-12T02:48:58.858Z,100194
2017-06-12T02:51:27.099Z,100200
2017-06-12T02:53:55.288Z,100193
2017-06-12T02:56:23.681Z,100203
2017-06-12T02:58:52.246Z,100214
2017-06-12T03:01:20.664Z,100203
2017-06-12T03:03:48.903Z,100214
2017-06-12T03:06:17.086Z,100220
2017-06-12T03:08:45.331Z,100211
2017-06-12T03:11:13.682Z,100212
2017-06-12T03:13:41.880Z,100223
2017-06-12T03:16:10.096Z,100226
2017-06-12T03:18:38.480Z,100222
2017-06-12T03:21:06.648Z,100233
2017-06-12T03:23:34.824Z,100231
2017-06-12T03:26:03.098Z,100230
2017-06-12T03:28:31.315Z,100230
2017-06-12T03:30:59.527Z,100234
2017-06-12T03:33:27.723Z,100242
2017-06-12T03:35:55.949Z,100243
2017-06-12T03:38:24.166Z,100238
2017-06-12T03:40:52.375Z,100244
2017-06-12T03:43:20.647Z,100247
2017-06-12T03:45:49.150Z,100247
2017-06-12T03:48:17.322Z,100249
2017-06-12T03:50:45.513Z,100246
2017-06-12T03:53:13.738Z,100248
2017-06-12T03:55:42.694Z,100239
2017-06-12T03:58:10.903Z,100240
2017-06-12T04:00:40.084Z,100244
2017-06-12T04:03:08.932Z,100255
2017-06-12T04:05:37.160Z,100241
2017-06-12T04:08:06.158Z,100242
2017-06-12T04:10:34.515Z,100249
2017-06-12T04:13:02.795Z,100245
2017-06-12T04:15:31.412Z,100248
2017-06-12T04:17:59.642Z,100249
2017-06-12T04:20:28.023Z,100258
2017-06-12T04:22:56.267Z,100248
2017-06-12T04:25:24.488Z,100261
2017-06-12T04:27:52.684Z,100258
2017-06-12T04:30:20.939Z,100261
2017-06-12T04:32:49.899Z,100266
2017-06-12T04:35:18.102Z,100259
2017-06-12T04:37:47.079Z,100263
2017-06-12T04:40:15.300Z,100261
2017-06-12T04:42:43.483Z,100262
2017-06-12T04:45:11.819Z,100269
2017-06-12T04:47:40.034Z,100265
2017-06-12T04:50:08.208Z,100273
2017-06-12T04:52:36.567Z,100277
2017-06-12T04:55:04.771Z,100278
2017-06-12T04:57:32.962Z,100283
2017-06-12T05:00:01.209Z,100278
2017-06-12T05:02:29.554Z,100281
2017-06-12T05:04:57.743Z,100273
2017-06-12T05:07:25.929Z,100270
2017-06-12T05:09:54.180Z,100280
2017-06-12T05:12:22.359Z,100283
2017-06-12T05:14:50.630Z,100288
2017-06-12T05:17:18.834Z,100304
2017-06-12T05:19:47.033Z,100293
2017-06-12T05:22:15.248Z,100290
2017-06-12T05:24:43.547Z,100298
2017-06-12T05:27:11.827Z,100289
2017-06-12T05:29:40.099Z,100280
2017-06-12T05:32:08.308Z,100287
2017-06-12T05:34:36.515Z,100288
2017-06-12T05:37:05.446Z,100303
2017-06-12T05:39:33.667Z,100294
2017-06-12T05:42:01.978Z,100290
2017-06-12T05:44:30.238Z,100294
2017-06-12T05:46:58.497Z,100298
2017-06-12T05:49:27.452Z,100298
2017-06-12T05:51:56.978Z,100301
2017-06-12T05:54:25.202Z,100312
2017-06-12T05:56:53.385Z,100312
2017-06-12T05:59:21.605Z,100308
2017-06-12T06:01:50.565Z,100310
2017-06-12T06:04:18.747Z,100306
2017-06-12T06:06:46.948Z,100319
2017-06-12T06:09:15.141Z,100326
2017-06-12T06:11:43.312Z,100331
2017-06-12T06:14:11.479Z,100333
2017-06-12T06:16:39.677Z,100343
2017-06-12T06:19:07.856Z,100344
2017-06-12T06:21:36.190Z,100345
2017-06-12T06:24:04.405Z,100337
2017-06-12T06:26:32.638Z,100348
2017-06-12T06:29:01.608Z,100351
2017-06-12T06:31:29.802Z,100348
2017-06-12T06:33:57.991Z,100351
2017-06-12T06:36:26.180Z,100358
2017-06-12T06:38:54.356Z,100354
2017-06-12T06:41:22.528Z,100362
2017-06-12T06:43:50.716Z,100366
2017-06-12T06:46:18.888Z,100359
2017-06-12T06:48:47.077Z,100368
2017-06-12T06:51:15.250Z,100372
2017-06-12T06:53:43.428Z,100388
2017-06-12T06:56:11.612Z,100392
2017-06-12T06:58:39.823Z,100392
2017-06-12T07:01:08.185Z,100393
2017-06-12T07:03:36.359Z,100397
2017-06-12T07:06:04.613Z,100387
2017-06-12T07:08:32.786Z,100388
2017-06-12T07:11:00.954Z,100391
2017-06-12T07:13:29.168Z,100398
2017-06-12T07:15:57.339Z,100397
2017-06-12T07:18:25.514Z,100395
2017-06-12T07:20:53.695Z,100398
2017-06-12T07:23:21.876Z,100392
2017-06-12T07:25:50.276Z,100399
2017-06-12T07:28:18.440Z,100409
2017-06-12T07:30:46.663Z,100409
2017-06-12T07:33:14.833Z,100402
2017-06-12T07:35:42.997Z,100405
2017-06-12T07:38:11.562Z,100410
2017-06-12T07:40:39.781Z,100402
2017-06-12T07:43:07.961Z,100407
2017-06-12T07:45:36.533Z,100393
2017-06-12T07:48:04.790Z,100390
2017-06-12T07:50:33.748Z,100394
2017-06-12T07:53:01.947Z,100385
2017-06-12T07:55:30.122Z,100408
2017-06-12T07:57:59.057Z,100415
2017-06-12T08:00:27.262Z,100401
2017-06-12T08:02:55.416Z,100402
2017-06-12T08:05:23.596Z,100391
2017-06-12T08:07:51.908Z,100391
2017-06-12T08:10:20.084Z,100395
2017-06-12T08:12:48.257Z,100395
2017-06-12T08:15:16.458Z,100397
2017-06-12T08:17:44.714Z,100392
2017-06-12T08:20:12.911Z,100391
2017-06-12T08:22:41.083Z,100403
2017-06-12T08:25:09.354Z,100393
2017-06-12T08:27:37.558Z,100392
2017-06-12T08:30:05.715Z,100398
2017-06-12T08:32:33.969Z,100388
2017-06-12T08:35:02.127Z,100398
2017-06-12T08:37:30.325Z,100402
2017-06-12T08:39:58.565Z,100393
2017-06-12T08:42:27.519Z,100411
2017-06-12T08:44:55.717Z,100401
2017-06-12T08:47:23.904Z,100386
2017-06-12T08:49:52.863Z,100398
2017-06-12T08:52:21.103Z,100395
2017-06-12T08:54:49.258Z,100396
2017-06-12T08:57:17.434Z,100398
2017-06-12T08:59:45.654Z,100401
2017-06-12T09:02:13.842Z,100404
2017-06-12T09:04:42.027Z,100407
2017-06-12T09:07:10.259Z,100415
2017-06-12T09:09:38.455Z,100414
2017-06-12T09:12:06.643Z,100419
2017-06-12T09:14:34.872Z,100412
2017-06-12T09:17:03.047Z,100422
2017-06-12T09:19:31.240Z,100406
2017-06-12T09:21:59.443Z,100421
2017-06-12T09:24:27.725Z,100421
2017-06-12T09:26:55.945Z,100418
2017-06-12T09:29:24.131Z,100429
2017-06-12T09:31:52.316Z,100436
2017-06-12T09:34:20.644Z,100436
2017-06-12T09:36:48.820Z,100434
2017-06-12T09:39:17.016Z,100454
2017-06-12T09:41:45.218Z,100454
2017-06-12T09:44:13.384Z,100454
2017-06-12T09:46:42.359Z,100455
2017-06-12T09:49:10.547Z,100461
2017-06-12T09:51:38.720Z,100452
2017-06-12T09:54:06.957Z,100447
2017-06-12T09:56:35.140Z,100465
2017-06-12T09:59:03.308Z,100459
2017-06-12T10:01:31.561Z,100461
2017-06-12T10:04:00.068Z,100469
2017-06-12T10:06:28.226Z,100475
2017-06-12T10:08:56.403Z,100476
2017-06-12T10:11:24.562Z,100468
2017-06-12T10:13:52.723Z,100483
2017-06-12T10:16:20.932Z,100475
2017-06-12T10:18:49.112Z,100479
2017-06-12T10:21:17.346Z,100476
2017-06-12T10:23:45.504Z,100478
2017-06-12T10:26:13.699Z,100476
2017-06-12T10:28:41.929Z,100469
2017-06-12T10:31:10.110Z,100471
2017-06-12T10:33:38.475Z,100464
2017-06-12T10:36:06.670Z,100470
2017-06-12T10:38:34.871Z,100466
2017-06-12T10:41:03.045Z,100471
2017-06-12T10:43:31.422Z,100474
2017-06-12T10:45:59.635Z,100475
2017-06-12T10:48:27.903Z,100475
2017-06-12T10:50:56.199Z,100478
2017-06-12T10:53:24.442Z,100482
2017-06-12T10:55:52.648Z,100487
2017-06-12T10:58:20.841Z,100485
2017-06-12T11:00:49.099Z,100480
2017-06-12T11:03:17.366Z,100477
2017-06-12T11:05:45.592Z,100476
2017-06-12T11:08:13.871Z,100476
2017-06-12T11:10:42.036Z,100469
2017-06-12T11:13:10.268Z,100482
2017-06-12T11:15:38.481Z,100479
2017-06-12T11:18:06.715Z,100474
2017-06-12T11:20:34.911Z,100475
2017-06-12T11:23:03.102Z,100476
2017-06-12T11:25:36.863Z,100470
2017-06-12T11:28:05.082Z,100461
2017-06-12T11:30:33.361Z,100468
2017-06-12T11:33:01.578Z,100472
2017-06-12T11:35:29.783Z,100465
2017-06-12T11:37:58.038Z,100469
2017-06-12T11:40:26.417Z,100465
2017-06-12T11:42:54.619Z,100473
2017-06-12T11:45:22.803Z,100465
2017-06-12T11:47:50.990Z,100461
2017-06-12T11:50:19.313Z,100468
2017-06-12T11:52:47.491Z,100468
2017-06-12T11:55:16.429Z,100475
2017-06-12T11:57:44.688Z,100469
2017-06-12T12:00:12.902Z,100470
2017-06-12T12:02:41.101Z,100475
2017-06-12T12:05:10.135Z,100469
2017-06-12T12:07:38.313Z,100465
2017-06-12T12:10:06.495Z,100457
2017-06-12T12:12:35.035Z,100469
2017-06-12T12:15:04.008Z,100461
2017-06-12T12:17:32.189Z,100462
2017-06-12T12:20:01.203Z,100466
2017-06-12T12:22:29.403Z,100470
2017-06-12T12:24:57.596Z,100463
2017-06-12T12:27:25.811Z,100472
2017-06-12T12:29:54.751Z,100475
2017-06-12T12:32:22.955Z,100471
2017-06-12T12:34:51.149Z,100456
2017-06-12T12:37:19.401Z,100476
2017-06-12T12:39:47.581Z,100471
2017-06-12T12:42:16.900Z,100467
2017-06-12T12:44:45.112Z,100472
2017-06-12T12:47:13.891Z,100476
2017-06-12T12:49:42.064Z,100467
2017-06-12T12:52:10.319Z,100465
2017-06-12T12:54:40.068Z,100475
2017-06-12T12:57:08.500Z,100475
2017-06-12T12:59:36.711Z,100482
2017-06-12T13:02:04.904Z,100463
2017-06-12T13:04:33.142Z,100472
2017-06-12T13:07:01.350Z,100469
2017-06-12T13:09:29.559Z,100468
2017-06-12T13:11:57.785Z,100462
2017-06-12T13:14:27.241Z,100472
2017-06-12T13:16:55.443Z,100471
2017-06-12T13:19:23.640Z,100472
2017-06-12T13:21:51.869Z,100462
2017-06-12T13:24:20.103Z,100462
2017-06-12T13:26:48.292Z,100468
2017-06-12T13:29:16.488Z,100463
2017-06-12T13:31:44.733Z,100451
2017-06-12T13:34:12.999Z,100459
2017-06-12T13:36:41.268Z,100466
2017-06-12T13:39:09.439Z,100450
2017-06-12T13:41:37.635Z,100453
2017-06-12T13:44:06.667Z,100456
2017-06-12T13:46:35.017Z,100465
2017-06-12T13:49:03.991Z,100457
2017-06-12T13:51:32.179Z,100463
2017-06-12T13:54:00.417Z,100452
2017-06-12T13:56:28.575Z,100457
2017-06-12T13:58:56.756Z,100454
2017-06-12T14:01:24.996Z,100457
2017-06-12T14:03:53.172Z,100455
2017-06-12T14:06:21.341Z,100466
2017-06-12T14:08:49.590Z,100464
2017-06-12T14:11:18.577Z,100461
2017-06-12T14:13:46.758Z,100463
2017-06-12T14:16:14.973Z,100461
2017-06-12T14:18:43.219Z,100453
2017-06-12T14:21:11.413Z,100461
2017-06-12T14:23:39.649Z,100453
2017-06-12T14:26:08.612Z,100464
2017-06-12T14:28:36.788Z,100462
2017-06-12T14:31:04.997Z,100453
2017-06-12T14:33:33.188Z,100455
2017-06-12T14:36:01.484Z,100461
2017-06-12T14:38:29.730Z,100468
2017-06-12T14:40:57.901Z,100465
2017-06-12T14:43:26.071Z,100467
2017-06-12T14:45:54.277Z,100466
2017-06-12T14:48:22.485Z,100469
2017-06-12T14:50:50.680Z,100463
2017-06-12T14:53:18.854Z,100470
2017-06-12T14:55:47.056Z,100473
2017-06-12T14:58:15.355Z,100472
2017-06-12T15:00:43.557Z,100474
2017-06-12T15:03:11.754Z,100462
2017-06-12T15:05:40.000Z,100480
2017-06-12T15:08:08.319Z,100474
2017-06-12T15:10:36.504Z,100468
2017-06-12T15:13:04.673Z,100466
2017-06-12T15:15:32.959Z,100467
2017-06-12T15:18:01.143Z,100476
2017-06-12T15:20:29.336Z,100472
2017-06-12T15:22:57.560Z,100467
2017-06-12T15:25:25.739Z,100472
2017-06-12T15:27:54.015Z,100474
2017-06-12T15:30:22.268Z,100472
2017-06-12T15:32:50.544Z,100476
2017-06-12T15:35:18.790Z,100474
2017-06-12T15:37:47.127Z,100475
2017-06-12T15:40:15.344Z,100471
2017-06-12T15:42:44.344Z,100470
2017-06-12T15:45:12.532Z,100471
2017-06-12T15:47:41.142Z,100472
2017-06-12T15:50:09.406Z,100471
2017-06-12T15:52:37.617Z,100470
2017-06-12T15:55:05.844Z,100464
2017-06-12T15:57:34.183Z,100462
2017-06-12T16:00:02.354Z,100465
2017-06-12T16:02:30.606Z,100452
2017-06-12T16:04:58.803Z,100467
2017-06-12T16:07:27.023Z,100466
2017-06-12T16:09:55.312Z,100462
2017-06-12T16:12:23.490Z,100459
2017-06-12T16:14:51.794Z,100459
2017-06-12T16:17:20.025Z,100460
2017-06-12T16:19:48.209Z,100463
2017-06-12T16:22:16.398Z,100462
2017-06-12T16:24:44.597Z,100467
2017-06-12T16:27:12.908Z,100472
2017-06-12T16:29:41.117Z,100473
2017-06-12T16:32:09.422Z,100471
2017-06-12T16:34:38.448Z,100467
2017-06-12T16:37:06.611Z,100467
2017-06-12T16:39:34.825Z,100479
2017-06-12T16:42:03.039Z,100471
2017-06-12T16:44:39.243Z,100472
2017-06-12T16:47:10.195Z,100472
2017-06-12T16:49:38.368Z,100466
2017-06-12T16:52:06.747Z,100478
2017-06-12T16:54:35.002Z,100475
2017-06-12T16:57:03.280Z,100481
2017-06-12T16:59:31.454Z,100478
2017-06-12T17:01:59.687Z,100487
2017-06-12T17:04:28.664Z,100479
2017-06-12T17:06:56.888Z,100484
2017-06-12T17:09:25.087Z,100477
2017-06-12T17:11:53.228Z,100478
2017-06-12T17:14:21.400Z,100486
2017-06-12T17:16:49.636Z,100493
2017-06-12T17:19:17.823Z,100492
2017-06-12T17:21:46.022Z,100508
2017-06-12T17:24:15.889Z,100502
2017-06-12T17:26:47.734Z,100502
2017-06-12T17:29:16.586Z,100512
2017-06-12T17:31:44.850Z,100511
2017-06-12T17:34:13.137Z,100514
2017-06-12T17:36:41.600Z,100521
2017-06-12T17:39:09.777Z,100526
2017-06-12T17:41:37.961Z,100529
2017-06-12T17:44:06.236Z,100526
2017-06-12T17:46:34.411Z,100533
2017-06-12T17:49:02.666Z,100539
2017-06-12T17:51:30.858Z,100543
2017-06-12T17:53:59.045Z,100543
2017-06-12T17:56:27.245Z,100549
2017-06-12T17:58:55.479Z,100537
2017-06-12T18:01:23.718Z,100537
2017-06-12T18:03:52.827Z,100535
2017-06-12T18:06:21.224Z,100546
2017-06-12T18:08:49.566Z,100536
2017-06-12T18:11:18.537Z,100548
2017-06-12T18:13:46.722Z,100543
2017-06-12T18:16:15.004Z,100557
2017-06-12T18:18:43.316Z,100555
2017-06-12T18:21:11.530Z,100545
2017-06-12T18:23:39.763Z,100558
2017-06-12T18:26:08.094Z,100564
2017-06-12T18:28:36.372Z,100558
2017-06-12T18:31:04.608Z,100558
2017-06-12T18:33:33.010Z,100570
2017-06-12T18:36:01.192Z,100558
2017-06-12T18:38:29.392Z,100566
2017-06-12T18:40:57.609Z,100571
2017-06-12T18:43:25.978Z,100563
2017-06-12T18:45:54.233Z,100576
2017-06-12T18:48:22.427Z,100569
2017-06-12T18:50:50.687Z,100568
2017-06-12T18:53:18.900Z,100574
2017-06-12T18:55:47.127Z,100574
2017-06-12T18:58:15.369Z,100579
2017-06-12T19:00:44.357Z,100574
2017-06-12T19:03:12.564Z,100575
2017-06-12T19:05:40.807Z,100586
2017-06-12T19:08:09.082Z,100578
2017-06-12T19:10:37.264Z,100581
2017-06-12T19:13:05.552Z,100591
2017-06-12T19:15:33.794Z,100593
2017-06-12T19:18:02.919Z,100592
2017-06-12T19:20:31.967Z,100595
2017-06-12T19:23:00.167Z,100594
2017-06-12T19:25:28.383Z,100600
2017-06-12T19:27:56.588Z,100604
2017-06-12T19:30:24.774Z,100604
2017-06-12T19:32:53.300Z,100603
2017-06-12T19:35:21.517Z,100607
2017-06-12T19:37:49.699Z,100617
2017-06-12T19:40:17.948Z,100618
2017-06-12T19:42:46.328Z,100625
2017-06-12T19:45:14.546Z,100627
2017-06-12T19:47:42.771Z,100622
2017-06-12T19:50:11.000Z,100635
2017-06-12T19:52:39.343Z,100634
2017-06-12T19:55:07.554Z,100634
2017-06-12T19:57:35.791Z,100640
2017-06-12T20:00:04.053Z,100647
2017-06-12T20:02:32.304Z,100643
2017-06-12T20:05:00.502Z,100655
2017-06-12T20:07:28.669Z,100656
2017-06-12T20:09:56.975Z,100657
2017-06-12T20:12:25.211Z,100658
2017-06-12T20:14:53.452Z,100659
2017-06-12T20:17:21.659Z,100661
2017-06-12T20:19:50.355Z,100667
2017-06-12T20:22:19.400Z,100671
2017-06-12T20:24:47.805Z,100676
2017-06-12T20:27:16.041Z,100676
2017-06-12T20:29:44.691Z,100677
2017-06-12T20:32:13.689Z,100675
2017-06-12T20:34:41.862Z,100671
2017-06-12T20:37:10.087Z,100678
2017-06-12T20:39:38.256Z,100676
2017-06-12T20:42:06.492Z,100676
2017-06-12T20:44:34.717Z,100677
2017-06-12T20:47:03.334Z,100674
2017-06-12T20:49:31.563Z,100675
2017-06-12T20:51:59.765Z,100672
2017-06-12T20:54:27.992Z,100669
2017-06-12T20:56:56.230Z,100671
2017-06-12T20:59:24.427Z,100673
2017-06-12T21:01:52.678Z,100672
2017-06-12T21:04:20.919Z,100675
2017-06-12T21:06:49.400Z,100666
2017-06-12T21:09:17.595Z,100673
2017-06-12T21:11:45.813Z,100674
2017-06-12T21:14:14.794Z,100682
2017-06-12T21:16:43.072Z,100679
2017-06-12T21:19:11.379Z,100683
2017-06-12T21:21:39.586Z,100686
2017-06-12T21:24:07.786Z,100684
2017-06-12T21:26:35.999Z,100694
2017-06-12T21:29:04.233Z,100689
2017-06-12T21:31:32.396Z,100690
2017-06-12T21:34:00.630Z,100696
2017-06-12T21:36:28.848Z,100693
2017-06-12T21:38:57.036Z,100694
2017-06-12T21:41:25.302Z,100698
2017-06-12T21:43:53.732Z,100696
2017-06-12T21:46:22.211Z,100696
2017-06-12T21:48:50.433Z,100701
2017-06-12T21:51:18.645Z,100700
2017-06-12T21:53:46.843Z,100709
2017-06-12T21:56:15.047Z,100704
2017-06-12T21:58:43.216Z,100704
2017-06-12T22:01:11.391Z,100708
2017-06-12T22:03:39.615Z,100704
2017-06-12T22:06:07.836Z,100710
2017-06-12T22:08:36.013Z,100710
2017-06-12T22:11:04.204Z,100706
2017-06-12T22:13:32.390Z,100710
2017-06-12T22:16:00.765Z,100706
2017-06-12T22:18:28.980Z,100700
2017-06-12T22:20:57.168Z,100709
2017-06-12T22:23:25.360Z,100704
2017-06-12T22:25:53.546Z,100704
2017-06-12T22:28:21.719Z,100710
2017-06-12T22:30:50.008Z,100715
2017-06-12T22:33:18.220Z,100715
2017-06-12T22:35:46.427Z,100716
2017-06-12T22:38:14.648Z,100721
2017-06-12T22:40:42.930Z,100724
2017-06-12T22:43:11.117Z,100720
2017-06-12T22:45:39.320Z,100713
2017-06-12T22:48:07.534Z,100719
2017-06-12T22:50:35.715Z,100724
2017-06-12T22:53:03.876Z,100719
2017-06-12T22:55:32.104Z,100707
2017-06-12T22:58:00.273Z,100709
2017-06-12T23:00:28.454Z,100718
2017-06-12T23:02:56.668Z,100713
2017-06-12T23:05:24.844Z,100717
2017-06-12T23:07:53.089Z,100723
2017-06-12T23:10:21.251Z,100726
2017-06-12T23:12:49.423Z,100719
2017-06-12T23:15:17.726Z,100724
2017-06-12T23:17:45.919Z,100715
2017-06-12T23:20:14.075Z,100719
2017-06-12T23:22:47.947Z,100735
2017-06-12T23:25:16.166Z,100726
2017-06-12T23:27:50.028Z,100730
2017-06-12T23:30:18.200Z,100727
2017-06-12T23:32:48.193Z,100738
2017-06-12T23:35:17.319Z,100738
2017-06-12T23:37:45.534Z,100736
2017-06-12T23:40:13.911Z,100745
2017-06-12T23:42:42.261Z,100740
2017-06-12T23:45:10.432Z,100740
2017-06-12T23:47:38.660Z,100736
2017-06-12T23:50:07.016Z,100734
2017-06-12T23:52:35.211Z,100738
2017-06-12T23:55:03.388Z,100740
2017-06-12T23:57:31.604Z,100731
2017-06-12T23:59:59.995Z,100731
